METAR Data
IDs: Format: Raw Decoded Include TAF

Data at: 0015 UTC 25 Apr 2019

METAR for:KBNW (Boone Muni, IA, US)
Text:KBNW 242355Z AUTO 16010KT 10SM CLR 20/09 A2976 RMK AO2
Temperature: 20.0°C ( 68°F)
Dewpoint: 9.0°C ( 48°F) [RH = 49%]
Pressure (altimeter):29.76 inches Hg (1007.9 mb)
Winds:from the SSE (160 degrees) at 12 MPH (10 knots; 5.1 m/s)
Visibility:10 or more sm (16+ km)
Ceiling:at least 12,000 feet AGL
Clouds:sky clear below 12,000 feet AGL
QC Flag:automated observation with no human augmentation